Time;durP1;ratioP1;P1;durP2;ratioP2;P2;SDS_P1;SDS_P2;PMS_P1;PMS_P2;Temp;Humidity;BMP_temperature;BMP_pressure;BME280_temperature;BME280_humidity;BME280_pressure;Samples;Min_cycle;Max_cycle;Signal;HPM_P1;HPM_P2
2023/11/17 17:50:41;;;;;;;3.38;3.08;;;;;;;;;;5995046;23;20381;-86
2023/11/17 17:53:08;;;;;;;6.57;2.63;;;;;;;;;;4969183;28;20122;-86
2023/11/17 17:55:34;;;;;;;3.70;1.80;;;;;;;;;;4939414;29;20048;-87
2023/11/17 17:57:59;;;;;;;5.10;4.65;;;;;;;;;;4921438;29;20019;-86
2023/11/17 18:00:25;;;;;;;1.67;1.58;;;;;;;;;;4925672;29;20039;-86
2023/11/17 18:02:57;;;;;;;1.60;1.40;;;;;;;;;;4940556;29;20107;-85
2023/11/17 18:05:23;;;;;;;1.73;1.55;;;;;;;;;;4940218;29;20042;-85
2023/11/17 18:07:49;;;;;;;1.58;1.13;;;;;;;;;;4929305;29;20039;-85
2023/11/17 18:10:15;;;;;;;45.03;25.10;;;;;;;;;;4932352;29;20032;-85
2023/11/17 18:12:44;;;;;;;7.10;4.60;;;;;;;;;;4921414;29;20479;-86
2023/11/17 18:15:11;;;;;;;27.85;13.45;;;;;;;;;;4921431;29;20086;-86
2023/11/17 18:17:39;;;;;;;10.27;5.57;;;;;;;;;;4938317;29;20027;-86
2023/11/17 18:20:05;;;;;;;8.13;5.50;;;;;;;;;;4938279;29;20028;-84
2023/11/17 18:22:34;;;;;;;12.85;7.97;;;;;;;;;;4938235;29;20036;-90
2023/11/17 18:25:00;;;;;;;7.38;5.43;;;;;;;;;;4938226;29;20107;-88
2023/11/17 18:27:39;;;;;;;2.40;2.13;;;;;;;;;;4936469;29;20059;-87
2023/11/17 18:30:08;;;;;;;5.90;4.20;;;;;;;;;;4940294;29;20027;-87
2023/11/17 18:32:35;;;;;;;1.85;1.42;;;;;;;;;;4957278;29;20032;-86
2023/11/17 18:35:03;;;;;;;10.27;6.63;;;;;;;;;;4923224;29;20024;-86
2023/11/17 18:37:29;;;;;;;48.08;31.25;;;;;;;;;;4938012;29;20043;-86
2023/11/17 18:39:54;;;;;;;15.00;11.07;;;;;;;;;;4947495;29;20031;-86
2023/11/17 18:42:20;;;;;;;8.68;5.68;;;;;;;;;;4957153;29;20378;-86
2023/11/17 18:44:47;;;;;;;3.53;2.67;;;;;;;;;;4956927;29;20031;-86
2023/11/17 18:47:13;;;;;;;1.70;1.60;;;;;;;;;;4957240;29;20031;-86
2023/11/17 18:49:39;;;;;;;1.45;1.20;;;;;;;;;;4939768;29;20475;-87
2023/11/17 18:52:05;;;;;;;1.75;1.65;;;;;;;;;;4936566;29;20048;-87
2023/11/17 18:54:31;;;;;;;2.88;1.90;;;;;;;;;;4936967;29;20038;-86
2023/11/17 18:56:57;;;;;;;1.30;1.20;;;;;;;;;;4936321;29;20024;-90
2023/11/17 18:59:24;;;;;;;1.23;1.13;;;;;;;;;;4917493;29;20052;-85
2023/11/17 19:01:51;;;;;;;0.80;0.80;;;;;;;;;;4918691;29;20028;-85
2023/11/17 19:04:19;;;;;;;1.75;1.40;;;;;;;;;;4917388;29;20123;-85
2023/11/17 19:06:49;;;;;;;1.98;1.70;;;;;;;;;;4918888;29;20436;-86
2023/11/17 19:09:16;;;;;;;1.60;1.50;;;;;;;;;;4918497;29;20111;-86
2023/11/17 19:11:45;;;;;;;1.60;1.48;;;;;;;;;;4917276;29;20027;-85
2023/11/17 19:14:13;;;;;;;3.20;2.80;;;;;;;;;;4918496;29;20483;-86
2023/11/17 19:16:39;;;;;;;1.73;1.25;;;;;;;;;;4918513;29;20028;-85
2023/11/17 19:19:07;;;;;;;1.23;1.00;;;;;;;;;;4917123;29;20052;-85
2023/11/17 19:21:33;;;;;;;1.10;1.00;;;;;;;;;;4917566;29;20468;-86
2023/11/17 19:24:00;;;;;;;1.15;1.05;;;;;;;;;;4918490;29;20083;-86
2023/11/17 19:26:27;;;;;;;1.27;1.17;;;;;;;;;;4917213;29;20028;-86
2023/11/17 19:28:52;;;;;;;1.70;1.27;;;;;;;;;;4918410;29;20029;-85
2023/11/17 19:31:19;;;;;;;3.90;2.45;;;;;;;;;;4918378;29;20083;-85
2023/11/17 19:33:45;;;;;;;3.38;1.60;;;;;;;;;;4918342;29;20032;-84
2023/11/17 19:36:10;;;;;;;3.60;2.53;;;;;;;;;;4918216;29;20376;-85
2023/11/17 19:38:36;;;;;;;2.80;1.70;;;;;;;;;;4916741;29;20147;-85
2023/11/17 19:41:02;;;;;;;2.15;1.30;;;;;;;;;;4918226;29;20103;-84
2023/11/17 19:43:27;;;;;;;1.85;1.10;;;;;;;;;;4916705;29;20034;-84
2023/11/17 19:45:54;;;;;;;1.05;0.95;;;;;;;;;;4916754;29;20036;-84
2023/11/17 19:48:20;;;;;;;0.93;0.82;;;;;;;;;;4918153;29;20027;-85
2023/11/17 19:50:45;;;;;;;1.23;1.13;;;;;;;;;;4917343;29;20056;-86
2023/11/17 19:53:11;;;;;;;1.02;0.90;;;;;;;;;;4943424;29;20437;-86
2023/11/17 19:55:36;;;;;;;1.13;1.13;;;;;;;;;;4956117;29;20122;-85
2023/11/17 19:58:04;;;;;;;1.13;0.77;;;;;;;;;;4938929;29;20035;-88
2023/11/17 20:00:30;;;;;;;1.13;0.95;;;;;;;;;;4956782;29;20469;-86
2023/11/17 20:02:56;;;;;;;1.05;0.98;;;;;;;;;;4956973;29;20054;-88
2023/11/17 20:05:21;;;;;;;1.00;1.00;;;;;;;;;;4929077;29;20027;-88
2023/11/17 20:07:48;;;;;;;1.23;1.13;;;;;;;;;;4925600;29;20039;-88
2023/11/17 20:10:16;;;;;;;1.17;1.10;;;;;;;;;;4939000;29;20500;-92
2023/11/17 20:12:42;;;;;;;2.05;1.00;;;;;;;;;;4937830;29;20394;-90
2023/11/17 20:15:14;;;;;;;1.20;1.10;;;;;;;;;;4938037;29;20028;-88
2023/11/17 20:17:47;;;;;;;0.85;0.85;;;;;;;;;;4920545;29;20435;-88
2023/11/17 20:20:14;;;;;;;0.70;0.70;;;;;;;;;;4920187;29;20442;-89
2023/11/17 20:22:43;;;;;;;2.05;1.90;;;;;;;;;;4938144;29;20028;-89
2023/11/17 20:25:11;;;;;;;7.43;4.85;;;;;;;;;;4920918;29;20035;-88
2023/11/17 20:27:44;;;;;;;1.73;1.63;;;;;;;;;;4921470;29;20062;-88
2023/11/17 20:30:13;;;;;;;1.48;1.30;;;;;;;;;;4921530;29;20438;-89
2023/11/17 20:32:39;;;;;;;1.20;1.10;;;;;;;;;;4920633;29;20395;-88
2023/11/17 20:35:08;;;;;;;2.03;1.92;;;;;;;;;;4938904;29;20058;-89
2023/11/17 20:37:35;;;;;;;1.40;1.30;;;;;;;;;;4921802;29;20427;-90
2023/11/17 20:40:09;;;;;;;1.45;1.35;;;;;;;;;;4921685;29;20032;-90
2023/11/17 20:42:34;;;;;;;1.42;1.33;;;;;;;;;;4938769;29;20087;-90
2023/11/17 20:45:03;;;;;;;1.30;1.20;;;;;;;;;;4921875;29;20039;-88
2023/11/17 20:47:28;;;;;;;1.55;1.02;;;;;;;;;;4921646;29;20032;-89
2023/11/17 20:49:57;;;;;;;1.42;1.33;;;;;;;;;;4921866;29;20024;-90
2023/11/17 20:52:22;;;;;;;1.83;1.73;;;;;;;;;;4920343;29;20533;-88
2023/11/17 20:54:53;;;;;;;2.83;2.05;;;;;;;;;;4920047;29;20028;-88
2023/11/17 20:57:18;;;;;;;2.10;1.67;;;;;;;;;;4919773;29;20028;-88
2023/11/17 20:59:56;;;;;;;4.60;3.53;;;;;;;;;;4922374;29;20024;-90
2023/11/17 21:02:24;;;;;;;501.77;233.18;;;;;;;;;;4921365;29;20379;-92
2023/11/17 21:04:53;;;;;;;93.95;40.13;;;;;;;;;;4921155;29;20548;-88
2023/11/17 21:07:18;;;;;;;63.08;30.45;;;;;;;;;;4921341;29;20079;-91
2023/11/17 21:09:47;;;;;;;49.17;35.10;;;;;;;;;;4921509;29;20035;-91
2023/11/17 21:12:13;;;;;;;12.68;11.10;;;;;;;;;;4938221;29;20040;-89
2023/11/17 21:14:42;;;;;;;1.77;1.17;;;;;;;;;;5131475;23;20051;-88
2023/11/17 21:17:10;;;;;;;13.63;12.35;;;;;;;;;;4958109;28;20022;-87
2023/11/17 21:19:36;;;;;;;17.48;15.70;;;;;;;;;;4975771;28;20027;-88
2023/11/17 21:22:01;;;;;;;10.43;9.50;;;;;;;;;;4975506;28;20058;-86
2023/11/17 21:24:30;;;;;;;6.13;5.63;;;;;;;;;;4975707;28;20370;-90
2023/11/17 21:26:56;;;;;;;3.33;3.05;;;;;;;;;;4959792;28;20027;-88
2023/11/17 21:29:21;;;;;;;4.65;2.30;;;;;;;;;;4957097;28;20355;-89
2023/11/17 21:31:48;;;;;;;2.03;1.48;;;;;;;;;;4956490;28;20027;-88
2023/11/17 21:34:15;;;;;;;2.63;2.42;;;;;;;;;;4958228;28;20026;-88
2023/11/17 21:36:43;;;;;;;2.75;2.47;;;;;;;;;;4975694;28;20023;-87
2023/11/17 21:39:09;;;;;;;1.30;1.27;;;;;;;;;;4975525;28;20090;-88
2023/11/17 21:41:34;;;;;;;1.25;1.15;;;;;;;;;;4958269;28;20026;-88
2023/11/17 21:44:00;;;;;;;1.20;1.10;;;;;;;;;;4958216;28;20358;-88
2023/11/17 21:46:26;;;;;;;0.95;0.90;;;;;;;;;;4961888;28;20035;-88
2023/11/17 21:48:52;;;;;;;0.95;0.95;;;;;;;;;;4962287;28;20118;-90
2023/11/17 21:51:17;;;;;;;1.13;1.10;;;;;;;;;;4962477;28;20542;-88
2023/11/17 21:53:46;;;;;;;3.13;1.55;;;;;;;;;;4961286;28;20442;-87
2023/11/17 21:56:19;;;;;;;1.38;1.20;;;;;;;;;;4961696;28;20023;-88
2023/11/17 21:58:45;;;;;;;1.27;1.17;;;;;;;;;;4960605;28;20042;-87
2023/11/17 22:01:10;;;;;;;1.60;1.40;;;;;;;;;;4944189;28;20039;-88
2023/11/17 22:03:37;;;;;;;1.23;1.13;;;;;;;;;;4960019;28;20027;-88
2023/11/17 22:06:11;;;;;;;1.80;1.35;;;;;;;;;;4960173;28;20027;-88
2023/11/17 22:08:38;;;;;;;1.40;1.30;;;;;;;;;;4960016;28;20041;-87
2023/11/17 22:11:06;;;;;;;1.30;1.20;;;;;;;;;;4959910;28;20034;-88
2023/11/17 22:13:32;;;;;;;2.00;1.20;;;;;;;;;;4943869;28;20166;-88
2023/11/17 22:15:57;;;;;;;1.40;1.30;;;;;;;;;;4938759;29;20454;-88
2023/11/17 22:18:23;;;;;;;1.90;1.17;;;;;;;;;;4937186;29;20476;-88
2023/11/17 22:23:14;;;;;;;1.33;1.00;;;;;;;;;;4994776;23;20070;-87
2023/11/17 22:25:40;;;;;;;1.25;1.10;;;;;;;;;;4930866;29;20114;-87
2023/11/17 22:28:05;;;;;;;1.60;1.50;;;;;;;;;;4921444;29;20110;-87
2023/11/17 22:30:31;;;;;;;3.55;2.72;;;;;;;;;;4921590;29;20091;-88
2023/11/17 22:32:57;;;;;;;1.80;1.70;;;;;;;;;;4921813;29;20023;-89
2023/11/17 22:35:22;;;;;;;2.60;2.05;;;;;;;;;;4938549;29;20107;-88
2023/11/17 22:37:49;;;;;;;2.70;2.42;;;;;;;;;;4938721;29;20423;-89
2023/11/17 22:40:15;;;;;;;3.60;2.30;;;;;;;;;;4938738;29;20474;-87
2023/11/17 22:42:49;;;;;;;3.63;3.10;;;;;;;;;;4921285;29;20043;-87
2023/11/17 22:45:15;;;;;;;2.65;2.17;;;;;;;;;;4921435;29;20028;-88
2023/11/17 22:47:44;;;;;;;3.38;2.45;;;;;;;;;;4921511;29;20114;-88
2023/11/17 22:50:14;;;;;;;2.72;2.53;;;;;;;;;;4921220;29;20467;-87
2023/11/17 22:52:40;;;;;;;3.78;2.22;;;;;;;;;;4920929;29;20093;-86
2023/11/17 22:55:09;;;;;;;3.30;2.30;;;;;;;;;;4938020;29;20526;-88
2023/11/17 22:57:36;;;;;;;3.38;2.35;;;;;;;;;;4921194;29;20087;-88
2023/11/17 23:00:01;;;;;;;2.88;2.55;;;;;;;;;;4938014;29;20063;-88
2023/11/17 23:02:28;;;;;;;2.55;2.35;;;;;;;;;;4921271;29;20032;-89
2023/11/17 23:04:56;;;;;;;2.10;1.90;;;;;;;;;;4921245;29;20082;-89
2023/11/17 23:07:25;;;;;;;3.13;2.00;;;;;;;;;;4938243;29;20379;-87
2023/11/17 23:09:51;;;;;;;3.58;2.30;;;;;;;;;;4921061;29;20035;-88
2023/11/17 23:12:20;;;;;;;2.95;2.30;;;;;;;;;;4921265;29;20036;-85
